Time;durP1;ratioP1;P1;durP2;ratioP2;P2;SDS_P1;SDS_P2;PMS_P1;PMS_P2;Temp;Humidity;BMP_temperature;BMP_pressure;BME280_temperature;BME280_humidity;BME280_pressure;Samples;Min_cycle;Max_cycle;Signal;HPM_P1;HPM_P2
2021/10/11 00:00:13;;;;;;;;;;;12.30;99.90;;;;;;5095629;28;19904;-74
2021/10/11 00:02:39;;;;;;;;;;;12.20;99.90;;;;;;5095313;28;20360;-74
2021/10/11 00:05:06;;;;;;;;;;;12.20;99.90;;;;;;5095297;28;20001;-74
2021/10/11 00:07:31;;;;;;;;;;;12.50;99.90;;;;;;5095715;28;19904;-74
2021/10/11 00:09:57;;;;;;;;;;;12.20;99.90;;;;;;5095179;28;19927;-75
2021/10/11 00:12:24;;;;;;;;;;;12.30;99.90;;;;;;5094844;28;20060;-74
2021/10/11 00:14:53;;;;;;;;;;;12.30;99.90;;;;;;5095363;28;20391;-74
2021/10/11 00:17:18;;;;;;;;;;;12.20;99.90;;;;;;5093740;28;20385;-73
2021/10/11 00:19:45;;;;;;;;;;;12.20;99.90;;;;;;5094943;28;19943;-74
2021/10/11 00:22:11;;;;;;;;;;;12.30;99.90;;;;;;5093570;28;19911;-74
2021/10/11 00:24:37;;;;;;;;;;;12.30;99.90;;;;;;5095455;28;19904;-74
2021/10/11 00:27:02;;;;;;;;;;;12.50;99.90;;;;;;5094849;28;19904;-74
2021/10/11 00:29:28;;;;;;;;;;;12.30;99.90;;;;;;5095346;28;20352;-73
2021/10/11 00:31:53;;;;;;;;;;;12.50;99.90;;;;;;5094528;28;19912;-73
2021/10/11 00:34:19;;;;;;;;;;;12.50;99.90;;;;;;5095034;28;19912;-74
2021/10/11 00:36:44;;;;;;;;;;;12.50;99.90;;;;;;5094661;28;19933;-74
2021/10/11 00:39:10;;;;;;;;;;;12.20;99.90;;;;;;5094644;28;19911;-74
2021/10/11 00:41:35;;;;;;;;;;;12.10;99.90;;;;;;5095154;28;19904;-74
2021/10/11 00:44:01;;;;;;;;;;;12.10;99.90;;;;;;5094505;28;19954;-73
2021/10/11 00:46:27;;;;;;;;;;;12.20;99.90;;;;;;5094502;28;19912;-74
2021/10/11 00:48:53;;;;;;;;;;;12.20;99.90;;;;;;5094443;28;19911;-73
2021/10/11 00:51:19;;;;;;;;;;;12.20;99.90;;;;;;5093898;28;20432;-74
2021/10/11 00:53:44;;;;;;;;;;;12.20;99.90;;;;;;5093921;28;19908;-73
2021/10/11 00:56:10;;;;;;;;;;;12.20;99.90;;;;;;5094894;28;19933;-73
2021/10/11 00:58:35;;;;;;;;;;;12.30;99.90;;;;;;5094286;28;19911;-74
2021/10/11 01:01:01;;;;;;;;;;;12.20;99.90;;;;;;5094539;28;19908;-73
2021/10/11 01:03:27;;;;;;;;;;;12.20;99.90;;;;;;5094233;28;19908;-74
2021/10/11 01:05:52;;;;;;;;;;;12.20;99.90;;;;;;5094460;28;20326;-74
2021/10/11 01:08:18;;;;;;;;;;;12.20;99.90;;;;;;5094151;28;19904;-74
2021/10/11 01:10:45;;;;;;;;;;;12.20;99.90;;;;;;5094117;28;19911;-73
2021/10/11 01:13:10;;;;;;;;;;;12.30;99.90;;;;;;5093807;28;20293;-74
2021/10/11 01:15:36;;;;;;;;;;;12.30;99.90;;;;;;5094321;28;19904;-73
2021/10/11 01:18:02;;;;;;;;;;;12.40;99.90;;;;;;5093956;28;19912;-73
2021/10/11 01:20:28;;;;;;;;;;;12.50;99.90;;;;;;5093905;28;19904;-74
2021/10/11 01:22:54;;;;;;;;;;;12.40;99.90;;;;;;5094502;28;20264;-74
2021/10/11 01:25:20;;;;;;;;;;;12.40;99.90;;;;;;5093924;28;19915;-74
2021/10/11 01:27:45;;;;;;;;;;;12.50;99.90;;;;;;5093907;28;19910;-73
2021/10/11 01:30:12;;;;;;;;;;;12.50;99.90;;;;;;5094173;28;19904;-74
2021/10/11 01:32:41;;;;;;;;;;;12.50;99.90;;;;;;5093790;28;20283;-73
2021/10/11 01:35:07;;;;;;;;;;;12.50;99.90;;;;;;5093817;28;19911;-73
2021/10/11 01:37:33;;;;;;;;;;;12.60;99.90;;;;;;5094071;28;19989;-74
2021/10/11 01:39:59;;;;;;;;;;;12.60;99.90;;;;;;5094027;28;19915;-73
2021/10/11 01:42:24;;;;;;;;;;;12.50;99.90;;;;;;5094324;28;19904;-74
2021/10/11 01:44:50;;;;;;;;;;;12.40;99.90;;;;;;5093768;28;20342;-73
2021/10/11 01:47:15;;;;;;;;;;;12.50;99.90;;;;;;5093721;28;19930;-74
2021/10/11 01:49:42;;;;;;;;;;;12.50;99.90;;;;;;5093685;28;19904;-74
2021/10/11 01:52:08;;;;;;;;;;;12.60;99.90;;;;;;5093846;28;19908;-74
2021/10/11 01:54:33;;;;;;;;;;;12.60;99.90;;;;;;5093617;28;20318;-73
2021/10/11 01:56:59;;;;;;;;;;;12.70;99.90;;;;;;5093604;28;19915;-73
2021/10/11 01:59:24;;;;;;;;;;;12.80;99.90;;;;;;5093913;28;19912;-74
2021/10/11 02:01:50;;;;;;;;;;;12.70;99.90;;;;;;5093587;28;19926;-74
2021/10/11 02:04:16;;;;;;;;;;;12.80;99.90;;;;;;5096767;28;19954;-73
2021/10/11 02:06:41;;;;;;;;;;;12.70;99.90;;;;;;5097532;28;19956;-74
2021/10/11 02:09:07;;;;;;;;;;;12.70;99.90;;;;;;5097548;28;19929;-74
2021/10/11 02:11:32;;;;;;;;;;;12.90;99.90;;;;;;5097377;28;20006;-73
2021/10/11 02:13:58;;;;;;;;;;;13.00;99.90;;;;;;5097739;28;19910;-73
2021/10/11 02:16:24;;;;;;;;;;;13.00;99.90;;;;;;5097361;28;19904;-73
2021/10/11 02:18:49;;;;;;;;;;;12.90;99.90;;;;;;5097618;28;19941;-74
2021/10/11 02:21:15;;;;;;;;;;;12.90;99.90;;;;;;5097211;28;19947;-74
2021/10/11 02:23:40;;;;;;;;;;;12.90;99.90;;;;;;5097497;28;20310;-73
2021/10/11 02:26:06;;;;;;;;;;;13.00;99.90;;;;;;5097174;28;19983;-73
2021/10/11 02:28:31;;;;;;;;;;;13.00;99.90;;;;;;5097150;28;19904;-73
2021/10/11 02:30:57;;;;;;;;;;;13.10;99.90;;;;;;5097146;28;19994;-74
2021/10/11 02:33:22;;;;;;;;;;;13.20;99.90;;;;;;5097001;28;19922;-74
2021/10/11 02:35:48;;;;;;;;;;;13.10;99.90;;;;;;5097306;28;19904;-73
2021/10/11 02:38:13;;;;;;;;;;;13.00;99.90;;;;;;5096956;28;20356;-74
2021/10/11 02:40:39;;;;;;;;;;;13.10;99.90;;;;;;5096918;28;19904;-73
2021/10/11 02:43:05;;;;;;;;;;;13.10;99.90;;;;;;5097149;28;19904;-73
2021/10/11 02:45:30;;;;;;;;;;;13.10;99.90;;;;;;5096761;28;19904;-74
2021/10/11 02:47:56;;;;;;;;;;;12.90;99.90;;;;;;5097305;28;19911;-74
2021/10/11 02:50:21;;;;;;;;;;;12.90;99.90;;;;;;5096676;28;20427;-74
2021/10/11 02:52:47;;;;;;;;;;;13.00;99.90;;;;;;5096901;28;19915;-74
2021/10/11 02:55:13;;;;;;;;;;;13.00;99.90;;;;;;5096612;28;19904;-74
2021/10/11 02:57:38;;;;;;;;;;;13.00;99.90;;;;;;5096626;28;19904;-74
2021/10/11 03:00:05;;;;;;;;;;;13.00;99.90;;;;;;5096837;28;19904;-74
2021/10/11 03:02:31;;;;;;;;;;;13.00;99.90;;;;;;5096440;28;20025;-73
2021/10/11 03:04:56;;;;;;;;;;;13.10;99.90;;;;;;5096460;28;19939;-74
2021/10/11 03:07:22;;;;;;;;;;;13.10;99.90;;;;;;5096410;28;19904;-74
2021/10/11 03:09:47;;;;;;;;;;;13.00;99.90;;;;;;5096357;28;19957;-74
2021/10/11 03:12:13;;;;;;;;;;;13.00;99.90;;;;;;5096233;28;19923;-74
2021/10/11 03:14:38;;;;;;;;;;;13.10;99.90;;;;;;5095298;28;19904;-75
2021/10/11 03:17:05;;;;;;;;;;;13.10;99.90;;;;;;5096408;28;19920;-73
2021/10/11 03:19:31;;;;;;;;;;;13.10;99.90;;;;;;5096776;28;20366;-74
2021/10/11 03:21:56;;;;;;;;;;;13.10;99.90;;;;;;5096109;28;19904;-74
2021/10/11 03:24:22;;;;;;;;;;;13.10;99.90;;;;;;5096099;28;19904;-74
2021/10/11 03:26:47;;;;;;;;;;;13.10;99.90;;;;;;5096093;28;19910;-74
2021/10/11 03:29:13;;;;;;;;;;;13.00;99.90;;;;;;5096551;28;19946;-74
2021/10/11 03:31:38;;;;;;;;;;;13.00;99.90;;;;;;5096164;28;19999;-74
2021/10/11 03:34:06;;;;;;;;;;;13.00;99.90;;;;;;5096162;28;20371;-73
2021/10/11 03:36:35;;;;;;;;;;;13.10;99.90;;;;;;5095856;28;19904;-73
2021/10/11 03:39:02;;;;;;;;;;;13.10;99.90;;;;;;5096372;28;19908;-74
2021/10/11 03:41:27;;;;;;;;;;;13.00;99.90;;;;;;5095758;28;20368;-74
2021/10/11 03:43:53;;;;;;;;;;;13.10;99.90;;;;;;5095731;28;19904;-74
2021/10/11 03:46:18;;;;;;;;;;;13.10;99.90;;;;;;5095669;28;19911;-74
2021/10/11 03:48:44;;;;;;;;;;;13.10;99.90;;;;;;5095874;28;19913;-74
2021/10/11 03:51:09;;;;;;;;;;;13.00;99.90;;;;;;5095545;28;19904;-74
2021/10/11 03:53:35;;;;;;;;;;;13.00;99.90;;;;;;5095739;28;19908;-74
2021/10/11 03:56:00;;;;;;;;;;;13.00;99.90;;;;;;5095449;28;20249;-74
2021/10/11 03:58:26;;;;;;;;;;;13.00;99.90;;;;;;5095420;28;20296;-73
2021/10/11 04:00:51;;;;;;;;;;;13.10;99.90;;;;;;5095933;28;19953;-73
2021/10/11 04:03:17;;;;;;;;;;;13.00;99.90;;;;;;5095329;28;19904;-73
2021/10/11 04:05:42;;;;;;;;;;;12.90;99.90;;;;;;5095557;28;19904;-74
2021/10/11 04:08:17;;;;;;;;;;;12.90;99.90;;;;;;5095247;28;19929;-74
2021/10/11 04:10:56;;;;;;;;;;;13.00;99.90;;;;;;5093610;28;19904;-74
2021/10/11 04:13:22;;;;;;;;;;;13.00;99.90;;;;;;5095418;28;19923;-74
2021/10/11 04:15:48;;;;;;;;;;;12.80;99.90;;;;;;5095060;28;19912;-74
2021/10/11 04:18:15;;;;;;;;;;;12.70;99.90;;;;;;5095311;28;19911;-73
2021/10/11 04:20:40;;;;;;;;;;;12.70;99.90;;;;;;5094921;28;19962;-75
2021/10/11 04:23:06;;;;;;;;;;;12.60;99.90;;;;;;5095008;28;19939;-73
2021/10/11 04:25:31;;;;;;;;;;;12.80;99.90;;;;;;5094939;28;19911;-73
2021/10/11 04:27:57;;;;;;;;;;;12.90;99.90;;;;;;5094951;28;19978;-74
2021/10/11 04:30:22;;;;;;;;;;;13.00;99.90;;;;;;5094806;28;19904;-73
2021/10/11 04:32:48;;;;;;;;;;;13.10;99.90;;;;;;5095249;28;19915;-74
2021/10/11 04:35:13;;;;;;;;;;;13.10;99.90;;;;;;5094747;28;19994;-73
2021/10/11 04:37:40;;;;;;;;;;;13.10;99.90;;;;;;5094919;28;19921;-74
2021/10/11 04:40:06;;;;;;;;;;;13.00;99.90;;;;;;5094641;28;19904;-73
2021/10/11 04:42:32;;;;;;;;;;;13.00;99.90;;;;;;5094504;28;19997;-75
2021/10/11 04:44:58;;;;;;;;;;;13.00;99.90;;;;;;5094527;28;19963;-73
2021/10/11 04:47:23;;;;;;;;;;;13.20;99.90;;;;;;5094498;28;19911;-74
2021/10/11 04:49:49;;;;;;;;;;;13.20;99.90;;;;;;5093143;28;19912;-74
2021/10/11 04:52:14;;;;;;;;;;;13.10;99.90;;;;;;5094349;28;19996;-74
2021/10/11 04:54:40;;;;;;;;;;;13.10;99.90;;;;;;5094638;28;19915;-73
2021/10/11 04:57:05;;;;;;;;;;;13.30;99.90;;;;;;5094327;28;19904;-74
2021/10/11 04:59:31;;;;;;;;;;;13.30;99.90;;;;;;5094309;28;19904;-75
2021/10/11 05:01:56;;;;;;;;;;;13.30;99.90;;;;;;5094248;28;19912;-75
2021/10/11 05:04:22;;;;;;;;;;;13.30;99.90;;;;;;5094493;28;20268;-74
2021/10/11 05:06:47;;;;;;;;;;;13.20;99.90;;;;;;5094174;28;19904;-74
2021/10/11 05:09:13;;;;;;;;;;;13.30;99.90;;;;;;5094150;28;20003;-73
2021/10/11 05:11:38;;;;;;;;;;;13.30;99.90;;;;;;5094060;28;19916;-74
2021/10/11 05:14:04;;;;;;;;;;;13.10;99.90;;;;;;5094630;28;20372;-74
2021/10/11 05:16:31;;;;;;;;;;;13.10;99.90;;;;;;5094027;28;20413;-74
2021/10/11 05:18:57;;;;;;;;;;;13.10;99.90;;;;;;5094585;28;19908;-74
2021/10/11 05:21:23;;;;;;;;;;;13.10;99.90;;;;;;5094207;28;19912;-73
2021/10/11 05:23:49;;;;;;;;;;;13.10;99.90;;;;;;5093982;28;20371;-74
2021/10/11 05:26:15;;;;;;;;;;;13.10;99.90;;;;;;5093956;28;19904;-74
2021/10/11 05:28:40;;;;;;;;;;;13.00;99.90;;;;;;5093860;28;19908;-75
2021/10/11 05:31:06;;;;;;;;;;;13.00;99.90;;;;;;5093856;28;19904;-75
2021/10/11 05:33:32;;;;;;;;;;;13.00;99.90;;;;;;5094341;28;20303;-73
2021/10/11 05:35:57;;;;;;;;;;;13.00;99.90;;;;;;5093840;28;19994;-74
2021/10/11 05:38:23;;;;;;;;;;;13.10;99.90;;;;;;5093216;28;19911;-73
2021/10/11 05:40:48;;;;;;;;;;;13.10;99.90;;;;;;5094356;28;19904;-74
2021/10/11 05:43:14;;;;;;;;;;;13.00;99.90;;;;;;5093719;28;19904;-73
2021/10/11 05:45:39;;;;;;;;;;;13.00;99.90;;;;;;5093978;28;19908;-73
2021/10/11 05:48:05;;;;;;;;;;;13.10;99.90;;;;;;5093679;28;20295;-73
2021/10/11 05:50:30;;;;;;;;;;;13.20;99.90;;;;;;5093670;28;20003;-74
2021/10/11 05:52:56;;;;;;;;;;;13.10;99.90;;;;;;5094155;28;19908;-74
2021/10/11 05:55:21;;;;;;;;;;;13.00;99.90;;;;;;5093682;28;19904;-74
2021/10/11 05:57:47;;;;;;;;;;;13.00;99.90;;;;;;5093628;28;19927;-74
2021/10/11 06:00:14;;;;;;;;;;;13.10;99.90;;;;;;5093864;28;20413;-74
2021/10/11 06:02:40;;;;;;;;;;;13.20;99.90;;;;;;5093874;28;19999;-73
2021/10/11 06:05:06;;;;;;;;;;;13.20;99.90;;;;;;5092593;28;19930;-74
2021/10/11 06:07:31;;;;;;;;;;;13.20;99.90;;;;;;5093559;28;19911;-75
2021/10/11 06:09:57;;;;;;;;;;;13.30;99.90;;;;;;5094078;28;19931;-73
2021/10/11 06:12:22;;;;;;;;;;;13.30;99.90;;;;;;5093207;28;20437;-73
2021/10/11 06:14:48;;;;;;;;;;;13.30;99.90;;;;;;5092148;28;20279;-73
2021/10/11 06:17:13;;;;;;;;;;;13.30;99.90;;;;;;5093427;28;19904;-75
2021/10/11 06:19:39;;;;;;;;;;;13.30;99.90;;;;;;5093426;28;19904;-74
2021/10/11 06:22:04;;;;;;;;;;;13.30;99.90;;;;;;5093312;28;19904;-74
2021/10/11 06:24:30;;;;;;;;;;;13.30;99.90;;;;;;5093378;28;20288;-73
2021/10/11 06:26:58;;;;;;;;;;;13.20;99.90;;;;;;5093270;28;19905;-73
2021/10/11 06:29:23;;;;;;;;;;;13.30;99.90;;;;;;5093320;28;19941;-74
2021/10/11 06:31:49;;;;;;;;;;;13.40;99.90;;;;;;5093232;28;20303;-74
2021/10/11 06:34:14;;;;;;;;;;;13.50;99.90;;;;;;5093823;28;19943;-74
2021/10/11 06:36:40;;;;;;;;;;;13.50;99.90;;;;;;5093231;28;19908;-72
2021/10/11 06:39:05;;;;;;;;;;;13.60;99.90;;;;;;5093802;28;19904;-71
2021/10/11 06:41:31;;;;;;;;;;;13.60;99.90;;;;;;5093212;28;19904;-72
2021/10/11 06:43:56;;;;;;;;;;;13.60;99.90;;;;;;5093482;28;19908;-72
2021/10/11 06:46:23;;;;;;;;;;;13.60;99.90;;;;;;5093451;28;20287;-72
2021/10/11 06:48:49;;;;;;;;;;;13.50;99.90;;;;;;5093192;28;19904;-72
2021/10/11 06:51:14;;;;;;;;;;;13.40;99.90;;;;;;5095471;28;19930;-72
2021/10/11 06:53:40;;;;;;;;;;;13.40;99.90;;;;;;5096794;28;20379;-72
2021/10/11 06:56:05;;;;;;;;;;;13.40;99.90;;;;;;5095184;28;19935;-75
2021/10/11 06:58:31;;;;;;;;;;;13.40;99.90;;;;;;5088519;28;19908;-77
2021/10/11 07:00:56;;;;;;;;;;;13.30;99.90;;;;;;5096000;28;19908;-73
2021/10/11 07:03:25;;;;;;;;;;;13.40;99.90;;;;;;5112093;28;19903;-77
2021/10/11 07:05:54;;;;;;;;;;;13.30;99.90;;;;;;5117153;28;19952;-80
2021/10/11 07:08:20;;;;;;;;;;;13.30;99.90;;;;;;5117123;28;19915;-75
2021/10/11 07:10:45;;;;;;;;;;;13.30;99.90;;;;;;5079968;28;19908;-75
2021/10/11 07:13:11;;;;;;;;;;;13.30;99.90;;;;;;5075507;28;19927;-77
2021/10/11 07:15:36;;;;;;;;;;;13.30;99.90;;;;;;5078095;28;19931;-76
2021/10/11 07:18:02;;;;;;;;;;;13.30;99.90;;;;;;5075946;28;19905;-76
2021/10/11 07:20:28;;;;;;;;;;;13.20;99.90;;;;;;5077189;28;19915;-75
2021/10/11 07:22:53;;;;;;;;;;;13.10;99.90;;;;;;5075927;28;19910;-76
2021/10/11 07:25:19;;;;;;;;;;;13.10;99.90;;;;;;5082137;28;19916;-76
2021/10/11 07:27:44;;;;;;;;;;;13.20;99.90;;;;;;5096023;28;19946;-78
2021/10/11 07:30:10;;;;;;;;;;;13.20;99.90;;;;;;5084459;28;19912;-79
2021/10/11 07:32:36;;;;;;;;;;;13.20;99.90;;;;;;5095911;28;19912;-79
2021/10/11 07:35:01;;;;;;;;;;;13.30;99.90;;;;;;5092416;28;19913;-79
2021/10/11 07:37:27;;;;;;;;;;;13.30;99.90;;;;;;5076014;28;20014;-77
2021/10/11 07:39:52;;;;;;;;;;;13.30;99.90;;;;;;5076230;28;20284;-77
2021/10/11 07:42:18;;;;;;;;;;;13.30;99.90;;;;;;5096020;28;19904;-76
2021/10/11 07:44:44;;;;;;;;;;;13.30;99.90;;;;;;5095374;28;19911;-82
2021/10/11 07:47:09;;;;;;;;;;;13.40;99.90;;;;;;5075969;28;19911;-75
2021/10/11 07:49:35;;;;;;;;;;;13.40;99.90;;;;;;5087111;28;19904;-80
2021/10/11 07:52:01;;;;;;;;;;;13.40;99.90;;;;;;5095474;28;19914;-75
2021/10/11 07:54:26;;;;;;;;;;;13.40;99.90;;;;;;5095500;28;19904;-78
2021/10/11 07:56:52;;;;;;;;;;;13.40;99.90;;;;;;5077544;28;19915;-76
2021/10/11 07:59:17;;;;;;;;;;;13.40;99.90;;;;;;5075213;28;19904;-78
2021/10/11 08:01:43;;;;;;;;;;;13.40;99.90;;;;;;5090937;28;19908;-74
2021/10/11 08:04:08;;;;;;;;;;;13.40;99.90;;;;;;5095317;28;19912;-77
2021/10/11 08:06:34;;;;;;;;;;;13.50;99.90;;;;;;5094290;28;19914;-75
2021/10/11 08:08:59;;;;;;;;;;;13.40;99.90;;;;;;5095516;28;19995;-76
2021/10/11 08:11:25;;;;;;;;;;;13.50;99.90;;;;;;5083994;28;19951;-78
2021/10/11 08:13:50;;;;;;;;;;;13.60;99.90;;;;;;5093034;28;19912;-78
2021/10/11 08:16:16;;;;;;;;;;;13.70;99.90;;;;;;5075615;28;19904;-76
2021/10/11 08:18:41;;;;;;;;;;;13.80;99.90;;;;;;5075469;28;19986;-77
2021/10/11 08:21:07;;;;;;;;;;;13.80;99.90;;;;;;5078946;28;19904;-76
2021/10/11 08:23:36;;;;;;;;;;;13.90;99.90;;;;;;5095430;28;19943;-75
2021/10/11 08:26:02;;;;;;;;;;;14.00;99.90;;;;;;5092143;28;20039;-73
2021/10/11 08:28:28;;;;;;;;;;;14.30;99.90;;;;;;5082095;28;19908;-74
2021/10/11 08:30:54;;;;;;;;;;;14.50;99.90;;;;;;5092954;28;19904;-74
2021/10/11 08:33:19;;;;;;;;;;;14.70;99.90;;;;;;5075835;28;19912;-77
2021/10/11 08:35:45;;;;;;;;;;;14.70;99.90;;;;;;5083502;28;19924;-76
2021/10/11 08:38:10;;;;;;;;;;;14.80;99.90;;;;;;5094694;28;20383;-77
2021/10/11 08:40:36;;;;;;;;;;;14.80;99.90;;;;;;5093235;28;19915;-77
2021/10/11 08:43:02;;;;;;;;;;;14.80;99.90;;;;;;5077146;28;19919;-73
2021/10/11 08:45:27;;;;;;;;;;;14.80;99.90;;;;;;5074981;28;19904;-76
2021/10/11 08:47:53;;;;;;;;;;;15.20;99.90;;;;;;5074311;28;19904;-80
2021/10/11 08:50:19;;;;;;;;;;;15.30;99.90;;;;;;5074857;28;19912;-78
2021/10/11 08:52:46;;;;;;;;;;;15.90;99.90;;;;;;5085492;28;19916;-79
2021/10/11 08:55:12;;;;;;;;;;;16.10;99.90;;;;;;5085644;28;19916;-79
2021/10/11 08:57:38;;;;;;;;;;;16.60;99.90;;;;;;5078848;28;19908;-81
2021/10/11 09:00:08;;;;;;;;;;;16.70;99.90;;;;;;5072987;28;19927;-78
2021/10/11 09:02:33;;;;;;;;;;;16.50;99.90;;;;;;5088771;28;19905;-74
2021/10/11 09:04:59;;;;;;;;;;;16.20;99.90;;;;;;5082069;28;20403;-72
2021/10/11 09:07:27;;;;;;;;;;;15.90;99.90;;;;;;5083668;28;19908;-72
2021/10/11 09:09:54;;;;;;;;;;;15.70;99.90;;;;;;5075391;28;20041;-72
2021/10/11 09:12:21;;;;;;;;;;;15.60;99.90;;;;;;5073544;28;19917;-71
2021/10/11 09:14:52;;;;;;;;;;;15.60;99.90;;;;;;5079419;28;19912;-72
2021/10/11 09:17:21;;;;;;;;;;;15.60;99.90;;;;;;5084182;28;19904;-74
2021/10/11 09:19:57;;;;;;;;;;;15.60;99.90;;;;;;5088160;28;19908;-75
2021/10/11 09:22:32;;;;;;;;;;;15.50;99.90;;;;;;5086222;28;19904;-76
2021/10/11 09:24:58;;;;;;;;;;;15.90;99.90;;;;;;5074560;28;19916;-71
2021/10/11 09:27:24;;;;;;;;;;;15.90;99.90;;;;;;5074049;28;20314;-80
2021/10/11 09:29:50;;;;;;;;;;;15.80;99.90;;;;;;5075023;28;19912;-73
2021/10/11 09:32:15;;;;;;;;;;;15.90;99.90;;;;;;5094264;28;20348;-72
2021/10/11 09:34:41;;;;;;;;;;;15.70;99.90;;;;;;5093536;28;19912;-73
2021/10/11 09:37:11;;;;;;;;;;;15.60;99.90;;;;;;5092936;28;19908;-72
2021/10/11 09:39:37;;;;;;;;;;;15.50;99.90;;;;;;5094130;28;19911;-72
2021/10/11 09:42:04;;;;;;;;;;;15.50;99.90;;;;;;5080920;28;19991;-79
2021/10/11 09:44:30;;;;;;;;;;;15.70;99.90;;;;;;5084371;28;19912;-77
2021/10/11 09:47:11;;;;;;;;;;;15.80;99.90;;;;;;5091804;28;19904;-75
2021/10/11 09:49:38;;;;;;;;;;;15.60;99.90;;;;;;5094383;28;20320;-75
2021/10/11 09:52:04;;;;;;;;;;;15.30;99.90;;;;;;5077828;28;19904;-77
2021/10/11 09:54:30;;;;;;;;;;;15.30;99.90;;;;;;5074962;28;20057;-75
2021/10/11 09:56:57;;;;;;;;;;;15.60;99.90;;;;;;5074144;28;19957;-75
2021/10/11 09:59:22;;;;;;;;;;;15.50;99.90;;;;;;5073415;28;19914;-73
2021/10/11 10:01:48;;;;;;;;;;;15.80;99.90;;;;;;5074673;28;20340;-72
2021/10/11 10:04:15;;;;;;;;;;;16.30;99.90;;;;;;5074519;28;19994;-76
2021/10/11 10:06:41;;;;;;;;;;;16.50;99.90;;;;;;5073743;28;20296;-78
2021/10/11 10:09:08;;;;;;;;;;;16.80;99.90;;;;;;5091592;28;19904;-75
2021/10/11 10:11:34;;;;;;;;;;;17.00;99.90;;;;;;5091764;28;20379;-79
2021/10/11 10:14:01;;;;;;;;;;;17.10;99.90;;;;;;5089277;28;20372;-79
2021/10/11 10:16:29;;;;;;;;;;;17.00;99.90;;;;;;5093311;28;19983;-75
2021/10/11 10:18:55;;;;;;;;;;;17.00;99.90;;;;;;5088404;28;19954;-73
2021/10/11 10:21:30;;;;;;;;;;;16.90;99.90;;;;;;5073841;28;19908;-73
2021/10/11 10:23:56;;;;;;;;;;;16.90;99.90;;;;;;5075308;28;19905;-77
2021/10/11 10:26:35;;;;;;;;;;;17.00;99.90;;;;;;5091799;28;19911;-72
2021/10/11 10:29:11;;;;;;;;;;;17.00;99.90;;;;;;5084308;28;19935;-71
2021/10/11 10:31:37;;;;;;;;;;;17.00;99.90;;;;;;5077461;28;19908;-78
2021/10/11 10:34:18;;;;;;;;;;;17.10;99.90;;;;;;5090853;28;19915;-72
2021/10/11 10:36:44;;;;;;;;;;;17.10;99.90;;;;;;5096857;28;19952;-72
2021/10/11 10:39:15;;;;;;;;;;;17.10;99.90;;;;;;5097380;28;19911;-72
2021/10/11 10:41:53;;;;;;;;;;;17.00;99.90;;;;;;5095383;28;20302;-72
2021/10/11 10:44:20;;;;;;;;;;;16.90;99.90;;;;;;5097331;28;19911;-72
2021/10/11 10:46:56;;;;;;;;;;;16.90;99.90;;;;;;5096865;28;20376;-72
2021/10/11 10:49:29;;;;;;;;;;;17.00;99.90;;;;;;5096804;28;19952;-72
2021/10/11 10:51:55;;;;;;;;;;;17.20;99.90;;;;;;5095872;28;19913;-72
2021/10/11 10:54:30;;;;;;;;;;;17.30;99.90;;;;;;5094960;28;20023;-72
2021/10/11 10:56:56;;;;;;;;;;;17.40;99.90;;;;;;5095175;28;19904;-72
2021/10/11 10:59:24;;;;;;;;;;;17.30;99.90;;;;;;5095306;28;19942;-72
2021/10/11 11:02:01;;;;;;;;;;;17.20;99.90;;;;;;5095113;28;19945;-73
2021/10/11 11:04:26;;;;;;;;;;;17.10;99.90;;;;;;5095044;28;20025;-72
2021/10/11 11:06:57;;;;;;;;;;;16.90;99.90;;;;;;5095443;28;20443;-72
2021/10/11 11:09:23;;;;;;;;;;;16.80;99.90;;;;;;5096550;28;19904;-72
2021/10/11 11:11:49;;;;;;;;;;;16.70;99.90;;;;;;5096418;28;20007;-72
2021/10/11 11:14:14;;;;;;;;;;;16.70;99.90;;;;;;5096240;28;19930;-72
2021/10/11 11:16:40;;;;;;;;;;;16.70;99.90;;;;;;5096581;28;19912;-71
2021/10/11 11:19:08;;;;;;;;;;;16.70;99.90;;;;;;5096508;28;20421;-71
2021/10/11 11:21:34;;;;;;;;;;;16.80;99.90;;;;;;5096431;28;20317;-72
2021/10/11 11:23:59;;;;;;;;;;;16.70;99.90;;;;;;5096435;28;19919;-72
2021/10/11 11:26:26;;;;;;;;;;;16.70;99.90;;;;;;5096135;28;20334;-72
2021/10/11 11:28:54;;;;;;;;;;;16.80;99.90;;;;;;5094537;28;19911;-72
2021/10/11 11:31:19;;;;;;;;;;;16.90;99.90;;;;;;5096012;28;19955;-72
2021/10/11 11:33:48;;;;;;;;;;;16.90;99.90;;;;;;5096462;28;19951;-72
2021/10/11 11:36:14;;;;;;;;;;;16.90;99.90;;;;;;5095071;28;19904;-72
2021/10/11 11:38:40;;;;;;;;;;;16.90;99.90;;;;;;5095884;28;19904;-72
2021/10/11 11:41:06;;;;;;;;;;;16.90;99.90;;;;;;5095832;28;19904;-72
2021/10/11 11:43:33;;;;;;;;;;;16.80;99.90;;;;;;5094519;28;20000;-72
2021/10/11 11:45:59;;;;;;;;;;;16.70;99.90;;;;;;5096305;28;19904;-72
2021/10/11 11:48:26;;;;;;;;;;;16.70;99.90;;;;;;5095640;28;20287;-72
2021/10/11 11:51:02;;;;;;;;;;;16.70;99.90;;;;;;5095647;28;19904;-72
2021/10/11 11:53:30;;;;;;;;;;;16.70;99.90;;;;;;5095853;28;19908;-72
2021/10/11 11:55:57;;;;;;;;;;;16.80;99.90;;;;;;5095492;28;19987;-72
2021/10/11 11:58:22;;;;;;;;;;;16.90;99.90;;;;;;5095483;28;19904;-72
2021/10/11 12:00:49;;;;;;;;;;;16.80;99.90;;;;;;5095708;28;20394;-71
2021/10/11 12:03:17;;;;;;;;;;;16.90;99.90;;;;;;5095149;28;19930;-72
2021/10/11 12:05:43;;;;;;;;;;;16.90;99.90;;;;;;5093397;28;19915;-76
2021/10/11 12:08:08;;;;;;;;;;;16.90;99.90;;;;;;5084216;28;19904;-78
2021/10/11 12:10:35;;;;;;;;;;;16.90;99.90;;;;;;5095758;28;19951;-77
2021/10/11 12:13:01;;;;;;;;;;;17.00;99.90;;;;;;5077734;28;19923;-78
2021/10/11 12:15:28;;;;;;;;;;;16.90;99.90;;;;;;5075957;28;19909;-78
2021/10/11 12:18:20;;;;;;;;;;;17.00;99.90;;;;;;5074709;28;19943;-76
2021/10/11 12:20:50;;;;;;;;;;;17.00;99.90;;;;;;5073599;28;19979;-76
2021/10/11 12:23:17;;;;;;;;;;;17.10;99.90;;;;;;5089242;28;19912;-75
2021/10/11 12:25:43;;;;;;;;;;;17.10;99.90;;;;;;5092723;28;19904;-76
2021/10/11 12:28:09;;;;;;;;;;;17.00;99.90;;;;;;5074942;28;19904;-76
2021/10/11 12:30:34;;;;;;;;;;;17.10;99.90;;;;;;5074985;28;20268;-76
2021/10/11 12:33:01;;;;;;;;;;;17.10;99.90;;;;;;5074970;28;19912;-76
2021/10/11 12:35:26;;;;;;;;;;;17.10;99.90;;;;;;5075032;28;20106;-77
2021/10/11 12:37:52;;;;;;;;;;;17.00;99.90;;;;;;5095401;28;20421;-77
2021/10/11 12:40:21;;;;;;;;;;;16.90;99.90;;;;;;5095105;28;19904;-75
2021/10/11 12:42:47;;;;;;;;;;;17.00;99.90;;;;;;5078565;28;19908;-76
2021/10/11 12:45:14;;;;;;;;;;;17.00;99.90;;;;;;5086502;28;19911;-76
2021/10/11 12:47:42;;;;;;;;;;;17.00;99.90;;;;;;5092662;28;19908;-71
2021/10/11 12:50:10;;;;;;;;;;;17.10;99.90;;;;;;5093935;28;19946;-72
2021/10/11 12:52:42;;;;;;;;;;;17.00;99.80;;;;;;5092922;28;19908;-72
2021/10/11 12:55:16;;;;;;;;;;;17.00;99.90;;;;;;5093092;28;19987;-72
2021/10/11 12:57:43;;;;;;;;;;;17.00;99.90;;;;;;5093561;28;19911;-72
2021/10/11 13:00:10;;;;;;;;;;;17.00;99.90;;;;;;5093232;28;19927;-73
2021/10/11 13:02:38;;;;;;;;;;;17.10;99.90;;;;;;5093259;28;19990;-72
2021/10/11 13:05:05;;;;;;;;;;;17.10;99.90;;;;;;5093786;28;19904;-73
2021/10/11 13:07:31;;;;;;;;;;;17.00;99.90;;;;;;5094138;28;19954;-72
2021/10/11 13:09:57;;;;;;;;;;;16.90;99.90;;;;;;5094410;28;19904;-71
2021/10/11 13:12:22;;;;;;;;;;;16.90;99.90;;;;;;5093964;28;19923;-72
2021/10/11 13:14:48;;;;;;;;;;;16.90;99.90;;;;;;5094099;28;20276;-72
2021/10/11 13:17:13;;;;;;;;;;;17.00;99.90;;;;;;5094118;28;19998;-72
2021/10/11 13:19:41;;;;;;;;;;;17.00;99.90;;;;;;5094034;28;19927;-72
2021/10/11 13:22:07;;;;;;;;;;;16.90;99.90;;;;;;5094233;28;19908;-71
2021/10/11 13:24:33;;;;;;;;;;;16.90;99.90;;;;;;5094018;28;20383;-73
2021/10/11 13:26:58;;;;;;;;;;;17.00;99.90;;;;;;5094213;28;19904;-73
2021/10/11 13:33:05;;;;;;;;;;;17.00;99.90;;;;;;5094204;28;19904;-71
2021/10/11 14:27:34;;;;;;;;;;;16.90;96.30;;;;;;5097035;28;19910;-71
2021/10/11 15:59:26;;;;;;;;;;;16.70;99.90;;;;;;5095274;28;20033;-71
2021/10/11 16:04:26;;;;;;;;;;;16.60;99.90;;;;;;5095430;28;19904;-73
2021/10/11 16:06:52;;;;;;;;;;;16.60;99.90;;;;;;5095361;28;19915;-71
2021/10/11 16:09:20;;;;;;;;;;;16.50;99.90;;;;;;5095321;28;19911;-72
2021/10/11 16:11:46;;;;;;;;;;;16.50;99.90;;;;;;5095288;28;19916;-71
2021/10/11 16:14:11;;;;;;;;;;;16.50;99.90;;;;;;5095701;28;20010;-71
2021/10/11 16:16:37;;;;;;;;;;;16.50;99.90;;;;;;5095149;28;19904;-72
2021/10/11 16:19:06;;;;;;;;;;;16.40;99.90;;;;;;5095148;28;19904;-72
2021/10/11 16:21:32;;;;;;;;;;;16.40;99.90;;;;;;5094859;28;19953;-72
2021/10/11 16:23:57;;;;;;;;;;;16.40;99.90;;;;;;5094901;28;19907;-72
2021/10/11 16:26:23;;;;;;;;;;;16.30;99.90;;;;;;5095270;28;19908;-71
2021/10/11 16:28:48;;;;;;;;;;;16.30;99.90;;;;;;5094977;28;20326;-71
2021/10/11 16:31:16;;;;;;;;;;;16.30;99.90;;;;;;5095179;28;19904;-71
2021/10/11 16:33:43;;;;;;;;;;;16.20;99.90;;;;;;5095057;28;19912;-72
2021/10/11 16:36:09;;;;;;;;;;;16.20;99.90;;;;;;5094818;28;19947;-71
2021/10/11 16:38:36;;;;;;;;;;;16.20;99.90;;;;;;5095326;28;19904;-71